createdAt,value
2023-05-02T00:02:09.512Z,88.47
2023-05-02T00:04:38.067Z,85.47
2023-05-02T00:07:06.755Z,93.40
2023-05-02T00:09:36.328Z,90.78
2023-05-02T00:12:04.686Z,87.25
2023-05-02T00:14:32.961Z,86.47
2023-05-02T00:17:01.291Z,91.80
2023-05-02T00:19:29.337Z,86.90
2023-05-02T00:21:59.741Z,90.57
2023-05-02T00:24:28.172Z,87.43
2023-05-02T00:26:57.701Z,84.95
2023-05-02T00:29:25.962Z,84.88
2023-05-02T00:31:54.177Z,89.00
2023-05-02T00:34:22.822Z,84.75
2023-05-02T00:36:51.080Z,79.75
2023-05-02T00:39:19.239Z,81.82
2023-05-02T00:41:47.524Z,75.47
2023-05-02T00:44:17.157Z,75.93
2023-05-02T00:46:45.285Z,71.03
2023-05-02T00:49:13.381Z,81.90
2023-05-02T00:51:41.590Z,85.18
2023-05-02T00:54:10.858Z,81.43
2023-05-02T00:56:38.875Z,87.10
2023-05-02T00:59:07.239Z,85.07
2023-05-02T01:01:44.875Z,86.13
2023-05-02T01:04:24.726Z,106.22
2023-05-02T01:07:05.067Z,110.88
2023-05-02T01:09:41.772Z,125.75
2023-05-02T01:12:17.313Z,132.40
2023-05-02T01:14:50.275Z,137.77
2023-05-02T01:17:21.550Z,148.18
2023-05-02T01:19:54.165Z,134.30
2023-05-02T01:24:55.964Z,134.55
2023-05-02T01:27:32.266Z,137.10
2023-05-02T01:30:03.876Z,136.10
2023-05-02T01:32:33.706Z,132.85
2023-05-02T01:35:03.155Z,130.27
2023-05-02T01:37:33.368Z,150.45
2023-05-02T01:40:02.340Z,145.13
2023-05-02T01:42:31.278Z,145.60
2023-05-02T01:45:02.441Z,155.80
2023-05-02T01:47:31.895Z,148.93
2023-05-02T01:50:01.184Z,161.45
2023-05-02T01:52:30.618Z,159.80
2023-05-02T01:54:59.571Z,160.80
2023-05-02T01:57:27.799Z,164.20
2023-05-02T01:59:58.009Z,159.18
2023-05-02T02:02:28.267Z,155.85
2023-05-02T02:04:56.963Z,157.68
2023-05-02T02:07:25.248Z,151.40
2023-05-02T02:09:53.740Z,161.10
2023-05-02T02:12:27.579Z,153.13
2023-05-02T02:14:58.572Z,148.27
2023-05-02T02:17:31.593Z,143.05
2023-05-02T02:20:03.152Z,152.13
2023-05-02T02:22:32.066Z,154.48
2023-05-02T02:25:00.756Z,157.07
2023-05-02T02:27:29.402Z,168.05
2023-05-02T02:29:57.992Z,155.77
2023-05-02T02:32:26.321Z,159.13
2023-05-02T02:34:56.292Z,147.18
2023-05-02T02:37:27.815Z,165.73
2023-05-02T02:40:00.593Z,150.55
2023-05-02T02:42:39.414Z,155.73
2023-05-02T02:45:15.339Z,150.85
2023-05-02T02:47:46.196Z,144.52
2023-05-02T02:50:21.017Z,145.23
2023-05-02T02:52:56.787Z,137.98
2023-05-02T02:55:32.680Z,141.43
2023-05-02T02:58:05.478Z,132.98
2023-05-02T03:03:01.939Z,136.43
2023-05-02T03:05:34.580Z,132.13
2023-05-02T03:08:03.662Z,126.90
2023-05-02T03:10:33.897Z,131.70
2023-05-02T03:13:05.111Z,125.13
2023-05-02T03:16:02.664Z,127.97
2023-05-02T03:18:32.643Z,121.80
2023-05-02T03:21:02.501Z,125.25
2023-05-02T03:23:30.576Z,129.98
2023-05-02T03:25:58.749Z,130.30
2023-05-02T03:28:27.485Z,117.20
2023-05-02T03:30:56.251Z,129.48
2023-05-02T03:33:25.847Z,127.85
2023-05-02T03:35:53.927Z,124.95
2023-05-02T03:38:23.986Z,131.80
2023-05-02T03:40:53.763Z,132.13
2023-05-02T03:43:21.959Z,135.90
2023-05-02T03:45:50.043Z,134.35
2023-05-02T03:48:18.696Z,136.77
2023-05-02T03:50:46.842Z,140.70
2023-05-02T03:53:16.095Z,139.27
2023-05-02T03:55:54.179Z,144.45
2023-05-02T03:58:30.902Z,145.38
2023-05-02T04:00:59.498Z,136.93
2023-05-02T04:03:30.147Z,147.05
2023-05-02T04:06:00.050Z,135.98
2023-05-02T04:08:28.449Z,136.90
2023-05-02T04:10:58.916Z,144.32
2023-05-02T04:13:29.295Z,136.02
2023-05-02T04:15:58.715Z,132.30
2023-05-02T04:18:30.973Z,131.88
2023-05-02T04:21:00.399Z,125.75
2023-05-02T04:23:29.529Z,138.18
2023-05-02T04:26:02.752Z,128.80
2023-05-02T04:28:37.637Z,124.22
2023-05-02T04:31:06.593Z,124.97
2023-05-02T04:33:35.008Z,121.97
2023-05-02T04:36:03.249Z,115.55
2023-05-02T04:38:33.102Z,111.22
2023-05-02T04:41:08.940Z,114.70
2023-05-02T04:43:42.986Z,111.75
2023-05-02T04:46:11.409Z,111.93
2023-05-02T04:48:42.211Z,100.90
2023-05-02T04:51:10.814Z,102.75
2023-05-02T04:53:38.948Z,84.88
2023-05-02T04:56:09.169Z,59.38
2023-05-02T04:58:38.996Z,46.47
2023-05-02T05:01:10.418Z,38.22
2023-05-02T05:03:39.226Z,35.90
2023-05-02T05:06:09.532Z,30.05
2023-05-02T05:08:37.704Z,32.30
2023-05-02T05:11:06.716Z,35.33
2023-05-02T05:13:37.700Z,31.10
2023-05-02T05:16:07.431Z,33.45
2023-05-02T05:18:40.789Z,32.13
2023-05-02T05:21:11.986Z,34.33
2023-05-02T05:23:45.890Z,40.47
2023-05-02T05:26:18.219Z,42.15
2023-05-02T05:28:51.326Z,42.65
2023-05-02T05:31:22.583Z,43.17
2023-05-02T05:33:54.287Z,43.97
2023-05-02T05:36:24.187Z,43.88
2023-05-02T05:38:53.299Z,42.28
2023-05-02T05:41:21.873Z,43.17
2023-05-02T05:43:56.929Z,45.17
2023-05-02T05:46:27.513Z,43.88
2023-05-02T05:48:56.096Z,51.78
2023-05-02T05:51:24.563Z,46.00
2023-05-02T05:53:52.689Z,51.72
2023-05-02T05:56:21.848Z,48.42
2023-05-02T05:58:58.152Z,40.15
2023-05-02T06:01:27.833Z,39.40
2023-05-02T06:03:56.636Z,43.67
2023-05-02T06:06:25.443Z,34.90
2023-05-02T06:08:55.417Z,41.00
2023-05-02T06:11:26.193Z,42.55
2023-05-02T06:13:54.682Z,43.05
2023-05-02T06:16:24.409Z,35.90
2023-05-02T06:18:53.799Z,43.55
2023-05-02T06:21:21.838Z,47.70
2023-05-02T06:23:50.146Z,37.05
2023-05-02T06:26:18.832Z,40.60
2023-05-02T06:28:47.396Z,40.15
2023-05-02T06:31:16.442Z,47.35
2023-05-02T06:33:46.217Z,42.25
2023-05-02T06:36:14.516Z,44.80
2023-05-02T06:38:42.524Z,45.60
2023-05-02T06:41:16.593Z,44.53
2023-05-02T06:43:46.388Z,45.20
2023-05-02T06:46:14.453Z,34.97
2023-05-02T06:48:42.896Z,39.60
2023-05-02T06:51:13.456Z,41.15
2023-05-02T06:53:41.609Z,45.00
2023-05-02T06:56:10.379Z,46.08
2023-05-02T06:58:38.551Z,50.35
2023-05-02T07:01:06.986Z,52.85
2023-05-02T07:03:35.384Z,45.28
2023-05-02T07:06:03.749Z,48.33
2023-05-02T07:08:33.561Z,46.55
2023-05-02T07:11:01.698Z,49.38
2023-05-02T07:13:30.006Z,50.85
2023-05-02T07:15:58.352Z,43.13
2023-05-02T07:18:26.362Z,43.13
2023-05-02T07:20:55.422Z,42.92
2023-05-02T07:23:23.591Z,36.72
2023-05-02T07:25:53.623Z,45.70
2023-05-02T07:28:22.093Z,34.38
2023-05-02T07:30:50.138Z,34.80
2023-05-02T07:33:19.095Z,30.75
2023-05-02T07:35:47.551Z,31.60
2023-05-02T07:38:15.610Z,30.00
2023-05-02T07:40:46.435Z,26.27
2023-05-02T07:43:16.425Z,24.42
2023-05-02T07:45:44.661Z,25.13
2023-05-02T07:48:12.905Z,23.08
2023-05-02T07:50:41.368Z,22.30
2023-05-02T07:53:11.574Z,23.67
2023-05-02T07:55:39.550Z,25.60
2023-05-02T07:58:07.893Z,23.20
2023-05-02T08:00:37.371Z,19.55
2023-05-02T08:03:06.672Z,15.10
2023-05-02T08:05:35.765Z,15.82
2023-05-02T08:08:04.008Z,16.77
2023-05-02T08:10:32.017Z,13.65
2023-05-02T08:13:00.382Z,13.80
2023-05-02T08:15:29.220Z,15.40
2023-05-02T08:18:00.082Z,15.32
2023-05-02T08:20:28.385Z,14.82
2023-05-02T08:22:58.611Z,14.68
2023-05-02T08:25:30.338Z,14.05
2023-05-02T08:27:58.406Z,17.45
2023-05-02T08:30:26.790Z,16.65
2023-05-02T08:32:54.886Z,15.85
2023-05-02T08:35:24.413Z,14.38
2023-05-02T08:37:52.425Z,15.48
2023-05-02T08:40:30.404Z,14.60
2023-05-02T08:43:09.334Z,13.07
2023-05-02T08:45:40.990Z,13.90
2023-05-02T08:48:11.768Z,12.43
2023-05-02T08:50:43.436Z,12.60
2023-05-02T08:53:12.719Z,12.13
2023-05-02T08:55:42.406Z,12.68
2023-05-02T08:58:12.407Z,11.18
2023-05-02T09:00:43.571Z,13.13
2023-05-02T09:03:23.340Z,10.40
2023-05-02T09:06:05.566Z,11.77
2023-05-02T09:08:34.119Z,8.10
2023-05-02T09:11:05.457Z,9.98
2023-05-02T09:13:35.698Z,11.93
2023-05-02T09:16:05.622Z,10.75
2023-05-02T09:18:35.667Z,12.20
2023-05-02T09:21:08.956Z,11.52
2023-05-02T09:23:39.516Z,10.45
2023-05-02T09:26:15.541Z,11.52
2023-05-02T09:28:46.659Z,10.57
2023-05-02T09:31:23.001Z,11.45
2023-05-02T09:33:56.243Z,12.38
2023-05-02T09:36:26.440Z,9.65
2023-05-02T09:39:12.685Z,10.95
2023-05-02T09:41:45.293Z,10.43
2023-05-02T09:46:45.310Z,10.63
2023-05-02T09:49:14.787Z,9.32
2023-05-02T09:51:45.186Z,10.68
2023-05-02T09:54:14.279Z,8.43
2023-05-02T09:56:56.884Z,10.00
2023-05-02T10:01:59.183Z,10.65
2023-05-02T10:04:29.268Z,9.07
2023-05-02T10:07:00.691Z,9.65
2023-05-02T10:09:29.278Z,13.27
2023-05-02T10:11:57.995Z,9.68
2023-05-02T10:14:29.557Z,9.07
2023-05-02T10:17:12.700Z,14.40
2023-05-02T10:19:48.289Z,9.82
2023-05-02T10:22:21.416Z,8.30
2023-05-02T10:24:50.465Z,10.02
2023-05-02T10:27:18.797Z,12.82
2023-05-02T10:29:48.065Z,15.50
2023-05-02T10:32:19.789Z,8.93
2023-05-02T10:34:49.678Z,11.10
2023-05-02T10:37:20.476Z,11.82
2023-05-02T10:39:49.462Z,12.25
2023-05-02T10:42:18.747Z,19.42
2023-05-02T10:44:47.079Z,14.60
2023-05-02T10:47:21.992Z,8.88
2023-05-02T10:49:55.843Z,16.63
2023-05-02T10:52:30.446Z,11.15
2023-05-02T10:55:21.630Z,11.80
2023-05-02T10:58:24.719Z,10.77
2023-05-02T11:00:55.030Z,13.30
2023-05-02T11:03:56.663Z,15.85
2023-05-02T11:06:27.216Z,13.73
2023-05-02T11:09:36.407Z,15.75
2023-05-02T11:12:05.913Z,17.00
2023-05-02T11:14:50.280Z,16.23
2023-05-02T11:17:20.990Z,13.60
2023-05-02T11:20:27.199Z,12.60
2023-05-02T11:22:57.580Z,26.15
2023-05-02T11:25:42.232Z,10.75
2023-05-02T11:28:51.456Z,13.40
2023-05-02T11:31:59.963Z,14.02
2023-05-02T11:34:28.325Z,16.17
2023-05-02T11:36:56.731Z,13.02
2023-05-02T11:39:24.870Z,12.32
2023-05-02T11:41:55.223Z,15.20
2023-05-02T11:44:23.237Z,19.98
2023-05-02T11:46:51.304Z,12.45
2023-05-02T11:49:19.685Z,18.77
2023-05-02T11:51:47.735Z,17.45
2023-05-02T11:54:20.478Z,15.95
2023-05-02T11:56:48.712Z,17.50
2023-05-02T11:59:18.796Z,15.75
2023-05-02T12:01:50.710Z,15.88
2023-05-02T12:04:21.920Z,16.17
2023-05-02T12:06:56.894Z,13.07
2023-05-02T12:09:25.246Z,12.50
2023-05-02T12:11:53.772Z,14.35
2023-05-02T12:14:29.928Z,17.38
2023-05-02T12:17:00.438Z,16.15
2023-05-02T12:19:28.659Z,14.15
2023-05-02T12:21:56.850Z,15.00
2023-05-02T12:24:25.275Z,17.13
2023-05-02T12:27:15.318Z,19.40
2023-05-02T12:29:45.909Z,11.85
2023-05-02T12:32:14.747Z,13.05
2023-05-02T12:34:42.766Z,12.25
2023-05-02T12:37:11.955Z,10.93
2023-05-02T12:39:42.136Z,14.15
2023-05-02T12:42:11.626Z,17.55
2023-05-02T12:44:40.771Z,15.90
2023-05-02T12:47:12.075Z,15.13
2023-05-02T12:49:55.093Z,11.85
2023-05-02T12:52:44.256Z,14.52
2023-05-02T12:55:18.635Z,15.98
2023-05-02T12:57:46.951Z,10.55
2023-05-02T13:00:16.489Z,12.15
2023-05-02T13:02:46.298Z,14.25
2023-05-02T13:05:17.656Z,12.27
2023-05-02T13:07:47.217Z,12.13
2023-05-02T13:10:17.850Z,10.85
2023-05-02T13:12:47.100Z,12.20
2023-05-02T13:15:15.671Z,16.25
2023-05-02T13:17:45.236Z,12.15
2023-05-02T13:20:14.095Z,10.98
2023-05-02T13:22:42.270Z,15.13
2023-05-02T13:25:10.624Z,10.82
2023-05-02T13:27:38.923Z,11.43
2023-05-02T13:30:09.752Z,16.75
2023-05-02T13:32:38.526Z,11.55
2023-05-02T13:35:13.966Z,16.23
2023-05-02T13:37:42.408Z,13.85
2023-05-02T13:40:14.096Z,12.23
2023-05-02T13:42:42.331Z,16.47
2023-05-02T13:45:12.613Z,14.65
2023-05-02T13:47:41.652Z,10.75
2023-05-02T13:50:12.637Z,15.13
2023-05-02T13:52:41.228Z,17.25
2023-05-02T13:55:10.752Z,13.27
2023-05-02T13:57:38.896Z,18.10
2023-05-02T14:00:09.651Z,13.90
2023-05-02T14:02:37.981Z,12.27
2023-05-02T14:05:08.920Z,11.43
2023-05-02T14:07:38.972Z,11.45
2023-05-02T14:10:08.478Z,12.88
2023-05-02T14:12:36.696Z,12.30
2023-05-02T14:15:05.727Z,11.93
2023-05-02T14:17:35.266Z,11.90
2023-05-02T14:20:04.136Z,14.10
2023-05-02T14:22:32.913Z,14.02
2023-05-02T14:25:03.933Z,12.30
2023-05-02T14:27:32.158Z,11.05
2023-05-02T14:30:00.720Z,12.30
2023-05-02T14:32:29.170Z,11.80
2023-05-02T14:34:57.226Z,11.27
2023-05-02T14:37:25.846Z,11.55
2023-05-02T14:39:56.175Z,12.10
2023-05-02T14:42:25.862Z,11.88
2023-05-02T14:44:59.470Z,11.02
2023-05-02T14:47:30.572Z,10.02
2023-05-02T14:49:58.812Z,18.52
2023-05-02T14:52:26.943Z,12.07
2023-05-02T14:54:55.183Z,10.25
2023-05-02T14:57:23.346Z,10.05
2023-05-02T14:59:53.061Z,17.05
2023-05-02T15:02:21.834Z,14.70
2023-05-02T15:04:50.251Z,13.30
2023-05-02T15:07:18.693Z,13.48
2023-05-02T15:09:46.932Z,13.60
2023-05-02T15:12:15.052Z,10.43
2023-05-02T15:14:43.152Z,10.38
2023-05-02T15:17:13.296Z,12.75
2023-05-02T15:19:41.973Z,12.75
2023-05-02T15:22:10.023Z,10.32
2023-05-02T15:24:38.429Z,9.07
2023-05-02T15:27:06.711Z,14.10
2023-05-02T15:29:34.977Z,14.95
2023-05-02T15:32:03.159Z,10.77
2023-05-02T15:34:32.893Z,16.42
2023-05-02T15:37:02.219Z,12.57
2023-05-02T15:39:30.388Z,9.60
2023-05-02T15:41:58.840Z,13.65
2023-05-02T15:44:28.021Z,16.42
2023-05-02T15:46:56.498Z,10.10
2023-05-02T15:49:31.787Z,12.23
2023-05-02T15:52:01.358Z,10.98
2023-05-02T15:54:29.979Z,14.57
2023-05-02T15:56:57.983Z,13.05
2023-05-02T15:59:26.106Z,14.10
2023-05-02T16:01:54.227Z,9.40
2023-05-02T16:04:22.386Z,11.13
2023-05-02T16:06:50.553Z,13.60
2023-05-02T16:09:20.966Z,23.42
2023-05-02T16:11:50.440Z,13.07
2023-05-02T16:14:18.462Z,12.00
2023-05-02T16:16:46.477Z,13.88
2023-05-02T16:19:14.506Z,16.55
2023-05-02T16:21:44.980Z,12.77
2023-05-02T16:24:13.628Z,15.43
2023-05-02T16:26:43.017Z,14.10
2023-05-02T16:29:11.324Z,15.25
2023-05-02T16:31:39.530Z,15.13
2023-05-02T16:34:09.335Z,10.90
2023-05-02T16:36:37.490Z,13.88
2023-05-02T16:39:05.972Z,12.57
2023-05-02T16:41:36.170Z,11.88
2023-05-02T16:44:16.627Z,11.77
2023-05-02T16:46:44.678Z,18.27
2023-05-02T16:49:13.044Z,10.10
2023-05-02T16:51:41.192Z,12.95
2023-05-02T16:54:11.202Z,10.90
2023-05-02T16:56:40.793Z,15.07
2023-05-02T16:59:14.807Z,18.13
2023-05-02T17:01:42.804Z,13.48
2023-05-02T17:04:10.809Z,15.25
2023-05-02T17:06:39.083Z,14.50
2023-05-02T17:09:07.307Z,10.82
2023-05-02T17:11:37.561Z,10.43
2023-05-02T17:14:06.353Z,14.95
2023-05-02T17:16:36.007Z,11.65
2023-05-02T17:19:04.857Z,17.02
2023-05-02T17:21:33.379Z,15.98
2023-05-02T17:24:01.906Z,10.52
2023-05-02T17:26:30.314Z,15.52
2023-05-02T17:28:59.040Z,12.93
2023-05-02T17:31:27.536Z,14.35
2023-05-02T17:33:57.268Z,14.15
2023-05-02T17:36:25.792Z,12.38
2023-05-02T17:38:54.995Z,12.10
2023-05-02T17:41:26.177Z,13.23
2023-05-02T17:43:54.363Z,12.43
2023-05-02T17:46:25.922Z,10.23
2023-05-02T17:48:53.971Z,11.73
2023-05-02T17:51:23.911Z,14.27
2023-05-02T17:53:53.601Z,16.17
2023-05-02T17:56:22.836Z,12.75
2023-05-02T17:58:53.915Z,10.32
2023-05-02T18:01:25.166Z,10.35
2023-05-02T18:03:54.585Z,14.30
2023-05-02T18:06:28.735Z,11.50
2023-05-02T18:08:58.173Z,9.98
2023-05-02T18:11:40.013Z,11.38
2023-05-02T18:14:08.551Z,13.23
2023-05-02T18:16:38.082Z,9.02
2023-05-02T18:19:06.470Z,12.32
2023-05-02T18:21:37.641Z,14.25
2023-05-02T18:24:08.240Z,12.13
2023-05-02T18:26:37.542Z,11.82
2023-05-02T18:29:08.257Z,11.75
2023-05-02T18:31:38.681Z,16.27
2023-05-02T18:34:07.352Z,12.65
2023-05-02T18:36:39.223Z,15.75
2023-05-02T18:39:10.060Z,13.20
2023-05-02T18:41:39.353Z,19.15
2023-05-02T18:44:10.133Z,18.83
2023-05-02T18:46:38.967Z,12.65
2023-05-02T18:49:09.307Z,13.82
2023-05-02T18:51:47.391Z,14.80
2023-05-02T18:54:15.739Z,12.48
2023-05-02T18:56:48.520Z,13.13
2023-05-02T18:59:17.371Z,9.82
2023-05-02T19:01:47.572Z,12.38
2023-05-02T19:04:16.387Z,14.90
2023-05-02T19:06:46.418Z,12.75
2023-05-02T19:09:16.710Z,11.20
2023-05-02T19:11:44.872Z,14.63
2023-05-02T19:14:13.587Z,10.20
2023-05-02T19:16:42.625Z,13.07
2023-05-02T19:19:10.901Z,16.65
2023-05-02T19:21:39.634Z,17.02
2023-05-02T19:24:09.923Z,19.20
2023-05-02T19:26:38.282Z,16.30
2023-05-02T19:29:07.621Z,15.57
2023-05-02T19:31:36.256Z,17.08
2023-05-02T19:34:04.747Z,12.60
2023-05-02T19:36:33.760Z,13.93
2023-05-02T19:39:02.066Z,15.55
2023-05-02T19:41:32.271Z,15.32
2023-05-02T19:44:01.089Z,17.10
2023-05-02T19:46:30.296Z,11.63
2023-05-02T19:48:59.377Z,14.93
2023-05-02T19:51:28.180Z,15.05
2023-05-02T19:53:58.706Z,17.27
2023-05-02T19:56:27.224Z,20.00
2023-05-02T19:58:58.780Z,18.83
2023-05-02T20:01:29.231Z,16.08
2023-05-02T20:04:00.203Z,15.52
2023-05-02T20:06:29.089Z,19.92
2023-05-02T20:08:59.322Z,19.35
2023-05-02T20:11:33.750Z,19.35
2023-05-02T20:14:04.691Z,27.15
2023-05-02T20:16:34.027Z,22.52
2023-05-02T20:19:02.591Z,15.38
2023-05-02T20:21:31.503Z,20.10
2023-05-02T20:24:04.071Z,22.38
2023-05-02T20:29:07.701Z,18.70
2023-05-02T20:31:37.849Z,20.95
2023-05-02T20:34:07.365Z,20.33
2023-05-02T20:36:35.728Z,13.25
2023-05-02T20:39:10.105Z,17.40
2023-05-02T20:41:38.580Z,18.98
2023-05-02T20:44:09.478Z,20.08
2023-05-02T20:46:38.504Z,16.38
2023-05-02T20:49:10.068Z,17.23
2023-05-02T20:51:38.651Z,21.88
2023-05-02T20:54:07.303Z,15.02
2023-05-02T20:56:37.846Z,21.17
2023-05-02T20:59:07.754Z,14.25
2023-05-02T21:01:36.555Z,22.40
2023-05-02T21:04:05.379Z,19.58
2023-05-02T21:06:36.119Z,17.33
2023-05-02T21:09:04.973Z,20.88
2023-05-02T21:11:36.642Z,16.80
2023-05-02T21:14:27.010Z,15.70
2023-05-02T21:16:56.149Z,14.95
2023-05-02T21:19:25.354Z,22.05
2023-05-02T21:21:54.799Z,19.85
2023-05-02T21:24:23.509Z,19.70
2023-05-02T21:26:52.896Z,14.77
2023-05-02T21:29:22.504Z,25.55
2023-05-02T21:31:52.508Z,26.08
2023-05-02T21:34:22.776Z,22.42
2023-05-02T21:36:52.408Z,25.42
2023-05-02T21:39:23.131Z,21.00
2023-05-02T21:41:51.537Z,25.73
2023-05-02T21:44:24.240Z,21.15
2023-05-02T21:49:21.159Z,23.17
2023-05-02T21:51:50.693Z,20.17
2023-05-02T21:54:19.296Z,23.42
2023-05-02T21:56:47.466Z,24.90
2023-05-02T21:59:16.277Z,23.73
2023-05-02T22:01:45.987Z,21.63
2023-05-02T22:04:14.627Z,26.58
2023-05-02T22:06:45.335Z,19.60
2023-05-02T22:09:14.507Z,16.08
2023-05-02T22:11:43.641Z,20.10
2023-05-02T22:14:12.450Z,19.23
2023-05-02T22:16:40.950Z,20.38
2023-05-02T22:19:14.440Z,20.17
2023-05-02T22:21:43.369Z,20.50
2023-05-02T22:24:13.037Z,20.20
2023-05-02T22:26:44.666Z,19.25
2023-05-02T22:29:12.781Z,19.33
2023-05-02T22:31:43.032Z,16.35
2023-05-02T22:34:12.506Z,16.02
2023-05-02T22:36:41.656Z,18.63
2023-05-02T22:39:13.013Z,16.63
2023-05-02T22:41:40.983Z,17.23
2023-05-02T22:44:10.021Z,21.92
2023-05-02T22:46:39.164Z,16.05
2023-05-02T22:49:10.219Z,19.65
2023-05-02T22:51:39.976Z,17.80
2023-05-02T22:54:15.753Z,19.83
2023-05-02T22:56:44.286Z,14.50
2023-05-02T22:59:12.568Z,14.85
2023-05-02T23:01:41.279Z,18.17
2023-05-02T23:04:09.726Z,20.90
2023-05-02T23:06:39.573Z,21.08
2023-05-02T23:09:08.402Z,21.52
2023-05-02T23:11:40.303Z,18.10
2023-05-02T23:14:08.918Z,18.27
2023-05-02T23:16:37.216Z,18.38
2023-05-02T23:19:08.253Z,14.40
2023-05-02T23:21:36.299Z,15.15
2023-05-02T23:24:06.085Z,17.10
2023-05-02T23:26:34.148Z,16.85
2023-05-02T23:29:02.521Z,15.85
2023-05-02T23:31:30.859Z,16.33
2023-05-02T23:34:00.001Z,21.67
2023-05-02T23:36:28.487Z,18.15
2023-05-02T23:38:56.748Z,20.77
2023-05-02T23:41:26.366Z,17.58
2023-05-02T23:43:54.926Z,18.85
2023-05-02T23:46:23.363Z,22.30
2023-05-02T23:48:51.557Z,17.83
2023-05-02T23:51:19.870Z,17.20
2023-05-02T23:53:48.255Z,15.68
2023-05-02T23:56:16.811Z,14.27
2023-05-02T23:58:46.338Z,20.75
